Time;durP1;ratioP1;P1;durP2;ratioP2;P2;SDS_P1;SDS_P2;PMS_P1;PMS_P2;Temp;Humidity;BMP_temperature;BMP_pressure;BME280_temperature;BME280_humidity;BME280_pressure;Samples;Min_cycle;Max_cycle;Signal;HPM_P1;HPM_P2
2023/07/28 00:01:42;;;;;;;;;;;;;;;-145.06;100.00;60892.56;4700205;29;20252;-91
2023/07/28 00:04:20;;;;;;;;;;;;;;;-145.06;100.00;60892.56;4700923;29;20379;-91
2023/07/28 00:06:59;;;;;;;;;;;;;;;-145.06;100.00;60892.56;4701133;29;19920;-93
2023/07/28 00:09:38;;;;;;;;;;;;;;;-145.06;100.00;60892.56;4713038;29;19923;-91
2023/07/28 00:12:17;;;;;;;;;;;;;;;-145.06;100.00;60892.56;4719730;29;19923;-93
2023/07/28 00:14:56;;;;;;;;;;;;;;;-145.06;100.00;60892.56;4718538;29;19916;-91
2023/07/28 00:17:35;;;;;;;;;;;;;;;-145.06;100.00;60892.56;4716883;29;19924;-90
2023/07/28 00:20:14;;;;;;;;;;;;;;;-145.06;100.00;60892.56;4711828;29;19916;-91
2023/07/28 00:22:53;;;;;;;;;;;;;;;-145.06;100.00;60892.56;4707757;29;19916;-92
2023/07/28 00:25:35;;;;;;;;;;;;;;;-145.06;100.00;60892.56;4701720;29;19916;-91
2023/07/28 00:28:14;;;;;;;;;;;;;;;-145.06;100.00;60892.56;4715903;29;19915;-92
2023/07/28 00:30:53;;;;;;;;;;;;;;;-145.06;100.00;60892.56;4700757;29;19920;-91
2023/07/28 00:33:32;;;;;;;;;;;;;;;-145.06;100.00;60892.56;4701644;29;19916;-92
2023/07/28 00:36:11;;;;;;;;;;;;;;;-145.06;100.00;60892.56;4701232;29;19916;-91
2023/07/28 00:38:50;;;;;;;;;;;;;;;-145.06;100.00;60892.56;4701269;29;19916;-91
2023/07/28 00:41:29;;;;;;;;;;;;;;;-145.06;100.00;60892.56;4714107;29;20015;-91
2023/07/28 00:44:08;;;;;;;;;;;;;;;-145.06;100.00;60892.56;4703842;29;19920;-91
2023/07/28 00:46:47;;;;;;;;;;;;;;;21.08;100.00;60892.56;4713925;29;19920;-91
2023/07/28 00:49:26;;;;;;;;;;;;;;;-145.06;100.00;60892.56;4709926;29;19920;-91
2023/07/28 00:52:06;;;;;;;;;;;;;;;-145.06;100.00;60892.56;4710740;29;19955;-90
2023/07/28 00:54:46;;;;;;;;;;;;;;;-145.06;100.00;60892.56;4701055;29;19916;-92
2023/07/28 00:57:25;;;;;;;;;;;;;;;-145.06;100.00;60892.56;4700636;29;20125;-91
2023/07/28 01:00:04;;;;;;;;;;;;;;;-145.06;100.00;60892.56;4701122;29;19915;-91
2023/07/28 01:02:43;;;;;;;;;;;;;;;-145.06;100.00;60892.56;4700856;29;20299;-91
2023/07/28 01:05:31;;;;;;;;;;;;;;;-145.06;100.00;60892.56;4715251;29;19919;-91
2023/07/28 01:08:27;;;;;;;;;;;;;;;-145.06;100.00;60892.56;4705548;29;19916;-90
2023/07/28 01:11:13;;;;;;;;;;;;;;;-145.06;100.00;60892.56;4700826;29;19924;-91
2023/07/28 01:13:52;;;;;;;;;;;;;;;-145.06;100.00;60892.56;4701385;29;19999;-92
2023/07/28 01:16:31;;;;;;;;;;;;;;;-145.06;100.00;60892.56;4701552;29;19916;-92
2023/07/28 01:19:12;;;;;;;;;;;;;;;-145.06;100.00;60892.56;4701117;29;19920;-92
2023/07/28 01:22:04;;;;;;;;;;;;;;;-145.06;100.00;60892.56;4700872;29;19920;-92
2023/07/28 01:24:55;;;;;;;;;;;;;;;-145.06;100.00;60892.56;4718337;29;19915;-92
2023/07/28 01:27:35;;;;;;;;;;;;;;;-145.06;100.00;60892.56;4699536;29;19956;-91
2023/07/28 01:30:14;;;;;;;;;;;;;;;-145.06;100.00;60892.56;4700476;29;19955;-92
2023/07/28 01:32:56;;;;;;;;;;;;;;;-145.06;100.00;60892.56;4700175;29;19915;-92
2023/07/28 01:35:37;;;;;;;;;;;;;;;-145.06;100.00;60892.56;4700372;29;19916;-92
2023/07/28 01:38:16;;;;;;;;;;;;;;;-145.06;100.00;60892.56;4695852;29;19916;-91
2023/07/28 01:40:55;;;;;;;;;;;;;;;-145.06;100.00;60892.56;4707921;29;19916;-92
2023/07/28 01:43:34;;;;;;;;;;;;;;;-145.06;100.00;60892.56;4695909;29;19916;-90
2023/07/28 01:46:13;;;;;;;;;;;;;;;-145.06;100.00;60892.56;4695740;29;19916;-92
2023/07/28 01:48:52;;;;;;;;;;;;;;;-145.06;100.00;60892.56;4683002;29;20015;-92
2023/07/28 01:51:31;;;;;;;;;;;;;;;-145.06;100.00;60892.56;4698916;29;19924;-92
2023/07/28 01:54:10;;;;;;;;;;;;;;;-145.06;100.00;60892.56;4701183;29;19999;-92
2023/07/28 01:56:49;;;;;;;;;;;;;;;-145.06;100.00;60892.56;4700810;29;19916;-92
2023/07/28 01:59:28;;;;;;;;;;;;;;;-145.06;100.00;60892.56;4713699;29;19920;-92
2023/07/28 02:02:07;;;;;;;;;;;;;;;-145.06;100.00;60892.56;4713513;29;19912;-92
2023/07/28 02:04:46;;;;;;;;;;;;;;;-145.06;100.00;60892.56;4713020;29;19919;-92
2023/07/28 02:07:25;;;;;;;;;;;;;;;-145.06;100.00;60892.56;4713052;29;19916;-93
2023/07/28 02:10:04;;;;;;;;;;;;;;;-145.06;100.00;60892.56;4716352;29;19920;-91
2023/07/28 02:12:44;;;;;;;;;;;;;;;-145.06;100.00;60892.56;4701122;29;19912;-91
2023/07/28 02:15:23;;;;;;;;;;;;;;;-145.06;100.00;60892.56;4704423;29;20359;-92
2023/07/28 02:18:02;;;;;;;;;;;;;;;-145.06;100.00;60892.56;4704816;29;19916;-91
2023/07/28 02:20:41;;;;;;;;;;;;;;;-145.06;100.00;60892.56;4711828;29;19915;-90
2023/07/28 02:23:20;;;;;;;;;;;;;;;-145.06;100.00;60892.56;4704140;29;20355;-91
2023/07/28 02:25:59;;;;;;;;;;;;;;;-145.06;100.00;60892.56;4706446;29;20423;-91
2023/07/28 02:28:38;;;;;;;;;;;;;;;-145.06;100.00;60892.56;4706642;29;19924;-91
2023/07/28 02:31:17;;;;;;;;;;;;;;;-145.06;100.00;60892.56;4705591;29;19955;-91
2023/07/28 02:33:57;;;;;;;;;;;;;;;-145.06;100.00;60892.56;4703349;29;19916;-91
2023/07/28 02:36:36;;;;;;;;;;;;;;;-145.06;100.00;60892.56;4693762;29;19916;-91
2023/07/28 02:39:15;;;;;;;;;;;;;;;-145.06;100.00;60892.56;4706533;29;19919;-92
2023/07/28 02:41:53;;;;;;;;;;;;;;;-145.06;100.00;60892.56;4703642;29;19912;-92
2023/07/28 02:44:32;;;;;;;;;;;;;;;-145.06;100.00;60892.56;4724329;29;19920;-92
2023/07/28 02:47:14;;;;;;;;;;;;;;;-145.06;100.00;60892.56;4703545;29;20263;-92
2023/07/28 02:49:53;;;;;;;;;;;;;;;-145.06;100.00;60892.56;4704302;29;19920;-93
2023/07/28 02:52:32;;;;;;;;;;;;;;;-145.06;100.00;60892.56;4703510;29;19938;-93
2023/07/28 02:55:11;;;;;;;;;;;;;;;-145.06;100.00;60892.56;4703206;29;19916;-92
2023/07/28 02:57:50;;;;;;;;;;;;;;;-145.06;100.00;60892.56;4704095;29;19915;-92
2023/07/28 03:00:29;;;;;;;;;;;;;;;-145.06;100.00;60892.56;4704178;29;19916;-93
2023/07/28 03:03:12;;;;;;;;;;;;;;;-145.06;100.00;60892.56;4704827;29;19951;-92
2023/07/28 03:05:53;;;;;;;;;;;;;;;-145.06;100.00;60892.56;4704083;29;20376;-92
2023/07/28 03:08:32;;;;;;;;;;;;;;;-145.06;100.00;60892.56;4703098;29;19916;-93
2023/07/28 03:11:11;;;;;;;;;;;;;;;-145.06;100.00;60892.56;4704925;29;20064;-92
2023/07/28 03:13:51;;;;;;;;;;;;;;;-145.06;100.00;60892.56;4706217;29;19955;-92
2023/07/28 03:16:29;;;;;;;;;;;;;;;-145.06;100.00;60892.56;4703178;29;19955;-92
2023/07/28 03:19:08;;;;;;;;;;;;;;;-145.06;100.00;60892.56;4703387;29;20350;-93
2023/07/28 03:21:47;;;;;;;;;;;;;;;-145.06;100.00;60892.56;4702990;29;19916;-91
2023/07/28 03:24:26;;;;;;;;;;;;;;;-145.06;100.00;60892.56;4703264;29;20379;-94
2023/07/28 03:27:05;;;;;;;;;;;;;;;-145.06;100.00;60892.56;4702350;29;19947;-91
2023/07/28 03:29:45;;;;;;;;;;;;;;;-145.06;100.00;60892.56;4685402;29;19921;-92
2023/07/28 03:32:24;;;;;;;;;;;;;;;-145.06;100.00;60892.56;4717122;29;19919;-92
2023/07/28 03:35:04;;;;;;;;;;;;;;;-145.06;100.00;60892.56;4702920;29;19915;-92
2023/07/28 03:37:44;;;;;;;;;;;;;;;-145.06;100.00;60892.56;4703149;29;19919;-93
2023/07/28 03:40:23;;;;;;;;;;;;;;;-145.06;100.00;60892.56;4703888;29;20033;-94
2023/07/28 03:43:04;;;;;;;;;;;;;;;-145.06;100.00;60892.56;4726792;29;23137;-92
2023/07/28 03:45:43;;;;;;;;;;;;;;;-145.06;100.00;60892.56;4706876;29;19916;-91
2023/07/28 03:48:22;;;;;;;;;;;;;;;-145.06;100.00;60892.56;4697726;29;19920;-91
2023/07/28 03:51:01;;;;;;;;;;;;;;;-145.06;100.00;60892.56;4695183;29;19919;-92
2023/07/28 03:53:40;;;;;;;;;;;;;;;-145.06;100.00;60892.56;4715857;29;20007;-91
2023/07/28 03:56:19;;;;;;;;;;;;;;;-145.06;100.00;60892.56;4705492;29;19920;-93
2023/07/28 03:58:58;;;;;;;;;;;;;;;-145.06;100.00;60892.56;4707916;29;19990;-91
2023/07/28 04:01:40;;;;;;;;;;;;;;;-145.06;100.00;60892.56;4702329;29;19920;-92
2023/07/28 04:04:19;;;;;;;;;;;;;;;-145.06;100.00;60892.56;4702537;29;19916;-91
2023/07/28 04:06:58;;;;;;;;;;;;;;;-145.06;100.00;60892.56;4702786;29;19919;-91
2023/07/28 04:09:37;;;;;;;;;;;;;;;-145.06;100.00;60892.56;4697639;29;19916;-92
2023/07/28 04:12:16;;;;;;;;;;;;;;;-145.06;100.00;60892.56;4701549;29;19924;-91
2023/07/28 04:14:55;;;;;;;;;;;;;;;-145.06;100.00;60892.56;4715354;29;20276;-92
2023/07/28 04:17:36;;;;;;;;;;;;;;;-145.06;100.00;60892.56;4702531;29;19916;-92
2023/07/28 04:20:16;;;;;;;;;;;;;;;-145.06;100.00;60892.56;4720197;29;19916;-92
2023/07/28 04:22:57;;;;;;;;;;;;;;;-145.06;100.00;60892.56;4740117;29;19915;-92
2023/07/28 04:25:36;;;;;;;;;;;;;;;-145.06;100.00;60892.56;4704582;29;20284;-91
2023/07/28 04:28:15;;;;;;;;;;;;;;;-145.06;100.00;60892.56;4698024;29;19920;-91
2023/07/28 04:30:54;;;;;;;;;;;;;;;-145.06;100.00;60892.56;4701729;29;19955;-91
2023/07/28 04:33:36;;;;;;;;;;;;;;;-145.06;100.00;60892.56;4702308;29;19916;-92
2023/07/28 04:36:15;;;;;;;;;;;;;;;-145.06;100.00;60892.56;4701852;29;19916;-92
2023/07/28 04:38:54;;;;;;;;;;;;;;;-145.06;100.00;60892.56;4700878;29;19916;-92
2023/07/28 04:41:34;;;;;;;;;;;;;;;-145.06;100.00;60892.56;4702275;29;19916;-94
2023/07/28 04:44:13;;;;;;;;;;;;;;;-145.06;100.00;60892.56;4715291;29;19943;-93
2023/07/28 04:46:51;;;;;;;;;;;;;;;-145.06;100.00;60892.56;4714104;29;19915;-94
2023/07/28 04:49:33;;;;;;;;;;;;;;;-145.06;100.00;60892.56;4701968;29;19915;-94
2023/07/28 04:52:12;;;;;;;;;;;;;;;-145.06;100.00;60892.56;4703120;29;19959;-94
2023/07/28 04:54:53;;;;;;;;;;;;;;;-145.06;100.00;60892.56;4716020;29;20359;-93
2023/07/28 04:57:55;;;;;;;;;;;;;;;-145.06;100.00;60892.56;4707612;29;19916;-93
2023/07/28 05:01:20;;;;;;;;;;;;;;;;;;;;;
2023/07/28 05:07:27;;;;;;;;;;;;;;;-145.06;100.00;60892.56;4720192;29;19924;-94
2023/07/28 05:10:14;;;;;;;;;;;;;;;-145.06;100.00;60892.56;4728716;29;19916;-93
2023/07/28 05:13:22;;;;;;;;;;;;;;;;;;;;;
2023/07/28 05:16:07;;;;;;;;;;;;;;;-145.06;100.00;60892.56;4725666;29;19916;-93
2023/07/28 05:19:00;;;;;;;;;;;;;;;-145.06;100.00;60892.56;4689250;29;19920;-94
2023/07/28 05:22:09;;;;;;;;;;;;;;;-145.06;100.00;60892.56;4690428;29;19921;-94
2023/07/28 05:36:03;;;;;;;;;;;;;;;;;;;;;
2023/07/28 05:42:28;;;;;;;;;;;;;;;;;;;;;
2023/07/28 05:45:39;;;;;;;;;;;;;;;19.48;100.00;60892.56;4704734;29;19920;-91
2023/07/28 05:58:54;;;;;;;;;;;;;;;19.54;100.00;60892.56;4641942;29;19917;-91
2023/07/28 06:16:01;;;;;;;;;;;;;;;-145.06;100.00;60892.56;4496432;30;19920;-93
2023/07/28 06:19:10;;;;;;;;;;;;;;;;;;;;;
2023/07/28 06:22:02;;;;;;;;;;;;;;;-145.06;100.00;60892.56;4534303;30;20279;-94
2023/07/28 06:25:16;;;;;;;;;;;;;;;19.77;100.00;60892.56;4536726;30;19919;-95
2023/07/28 06:31:29;;;;;;;;;;;;;;;19.75;100.00;60892.56;4644177;29;19921;-92
2023/07/28 06:37:19;;;;;;;;;;;;;;;19.77;100.00;60892.56;4703405;29;19915;-93
2023/07/28 06:51:47;;;;;;;;;;;;;;;-145.06;100.00;60892.56;4677597;29;19916;-92
2023/07/28 06:54:26;;;;;;;;;;;;;;;-145.06;100.00;60892.56;4686076;29;19947;-92
2023/07/28 06:57:14;;;;;;;;;;;;;;;-145.06;100.00;60892.56;4687836;29;19916;-93
2023/07/28 07:00:23;;;;;;;;;;;;;;;-145.06;100.00;60892.56;4704402;29;19916;-93
2023/07/28 07:03:23;;;;;;;;;;;;;;;-145.06;100.00;60892.56;4717599;29;19916;-93
2023/07/28 07:05:59;;;;;;;;;;;;;;;-145.06;100.00;60892.56;4699048;29;19920;-92
2023/07/28 07:08:38;;;;;;;;;;;;;;;-145.06;100.00;60892.56;4687253;29;20007;-91
2023/07/28 07:11:17;;;;;;;;;;;;;;;-145.06;100.00;60892.56;4686759;29;20199;-93
2023/07/28 07:13:56;;;;;;;;;;;;;;;-145.06;100.00;60892.56;4705063;29;19995;-92
2023/07/28 07:16:43;;;;;;;;;;;;;;;-145.06;100.00;60892.56;4671655;29;19917;-94
2023/07/28 07:20:41;;;;;;;;;;;;;;;;;;;;;
2023/07/28 07:22:53;;;;;;;;;;;;;;;-145.06;100.00;60892.56;4685449;29;19924;-93
2023/07/28 07:25:34;;;;;;;;;;;;;;;-145.06;100.00;60892.56;4698093;29;19928;-93
2023/07/28 07:28:22;;;;;;;;;;;;;;;-145.06;100.00;60892.56;4686786;29;19924;-91
2023/07/28 07:31:11;;;;;;;;;;;;;;;-145.06;100.00;60892.56;4685724;29;19924;-91
2023/07/28 07:33:53;;;;;;;;;;;;;;;-145.06;100.00;60892.56;4686211;29;19920;-92
2023/07/28 07:36:49;;;;;;;;;;;;;;;;;;;;;
2023/07/28 07:40:04;;;;;;;;;;;;;;;;;;;;;
2023/07/28 07:45:54;;;;;;;;;;;;;;;-145.06;100.00;60892.56;4705977;29;19925;-94
2023/07/28 07:48:39;;;;;;;;;;;;;;;-145.06;100.00;60892.56;4687477;29;20022;-92
2023/07/28 07:51:52;;;;;;;;;;;;;;;;;;;;;
2023/07/28 07:54:20;;;;;;;;;;;;;;;-145.06;100.00;60892.56;4699051;29;20260;-92
2023/07/28 07:57:02;;;;;;;;;;;;;;;-145.06;100.00;60892.56;4704789;29;19954;-92
2023/07/28 07:59:41;;;;;;;;;;;;;;;-145.06;100.00;60892.56;4703305;29;19916;-92
2023/07/28 08:02:20;;;;;;;;;;;;;;;-145.06;100.00;60892.56;4703080;29;19947;-93
2023/07/28 08:05:02;;;;;;;;;;;;;;;-145.06;100.00;60892.56;4682897;29;19924;-92
2023/07/28 08:07:42;;;;;;;;;;;;;;;-145.06;100.00;60892.56;4691974;29;19920;-93
2023/07/28 08:10:21;;;;;;;;;;;;;;;-145.06;100.00;60892.56;4702501;29;19920;-92
2023/07/28 08:13:00;;;;;;;;;;;;;;;-145.06;100.00;60892.56;4702431;29;19920;-92
2023/07/28 08:15:39;;;;;;;;;;;;;;;-145.06;100.00;60892.56;4701546;29;19920;-92
2023/07/28 08:18:18;;;;;;;;;;;;;;;-145.06;100.00;60892.56;4700231;29;19916;-93
2023/07/28 08:20:57;;;;;;;;;;;;;;;20.76;100.00;60892.56;4698622;29;19916;-93
2023/07/28 08:23:36;;;;;;;;;;;;;;;20.80;100.00;60892.56;4700445;29;19915;-92
2023/07/28 08:26:18;;;;;;;;;;;;;;;20.83;100.00;60892.56;4684659;29;19916;-92
2023/07/28 08:28:57;;;;;;;;;;;;;;;20.87;100.00;60892.56;4683717;29;20264;-92
2023/07/28 08:31:36;;;;;;;;;;;;;;;20.92;100.00;60892.56;4704308;29;20534;-94
2023/07/28 08:34:17;;;;;;;;;;;;;;;20.98;100.00;60892.56;4684739;29;19916;-93
2023/07/28 08:36:56;;;;;;;;;;;;;;;21.03;100.00;60892.56;4683910;29;20360;-92
2023/07/28 08:39:35;;;;;;;;;;;;;;;-145.06;100.00;60892.56;4684435;29;20280;-92
2023/07/28 08:42:14;;;;;;;;;;;;;;;-145.06;100.00;60892.56;4683808;29;19917;-93
2023/07/28 08:44:53;;;;;;;;;;;;;;;-145.06;100.00;60892.56;4684702;29;19916;-92
2023/07/28 08:47:32;;;;;;;;;;;;;;;-145.06;100.00;60892.56;4699221;29;19920;-92
2023/07/28 08:50:11;;;;;;;;;;;;;;;-145.06;100.00;60892.56;4684779;29;19920;-92
2023/07/28 08:53:12;;;;;;;;;;;;;;;-145.06;100.00;60892.56;4684880;29;19920;-92
2023/07/28 08:55:54;;;;;;;;;;;;;;;-145.06;100.00;60892.56;4704526;29;19919;-94
2023/07/28 08:58:44;;;;;;;;;;;;;;;-145.06;100.00;60892.56;4702454;29;19915;-91
2023/07/28 09:01:25;;;;;;;;;;;;;;;-145.06;100.00;60892.56;4701317;29;20358;-92
2023/07/28 09:04:10;;;;;;;;;;;;;;;-145.06;100.00;60892.56;4701549;29;19916;-92
2023/07/28 09:09:58;;;;;;;;;;;;;;;-145.06;100.00;60892.56;4684578;29;20308;-94
2023/07/28 09:12:44;;;;;;;;;;;;;;;-145.06;100.00;60892.56;4667455;29;19920;-92
2023/07/28 09:15:23;;;;;;;;;;;;;;;-145.06;100.00;60892.56;4685987;29;19916;-94
2023/07/28 09:18:23;;;;;;;;;;;;;;;-145.06;100.00;60892.56;4667095;29;20264;-94
2023/07/28 09:21:25;;;;;;;;;;;;;;;-145.06;100.00;60892.56;4666912;29;19921;-92
2023/07/28 09:24:34;;;;;;;;;;;;;;;-145.06;100.00;60892.56;4681136;29;20440;-92
2023/07/28 09:31:02;;;;;;;;;;;;;;;-145.06;100.00;60892.56;4647977;29;19921;-93
2023/07/28 09:33:56;;;;;;;;;;;;;;;-145.06;100.00;60892.56;4676435;29;19967;-94
2023/07/28 09:36:36;;;;;;;;;;;;;;;31.47;100.00;60892.56;4669556;29;19917;-92
2023/07/28 09:39:19;;;;;;;;;;;;;;;-145.06;100.00;60892.56;4687459;29;19916;-93
2023/07/28 09:42:14;;;;;;;;;;;;;;;;;;;;;
2023/07/28 09:45:10;;;;;;;;;;;;;;;;;;;;;
2023/07/28 09:48:21;;;;;;;;;;;;;;;;;;;;;
2023/07/28 09:54:40;;;;;;;;;;;;;;;-145.06;100.00;60892.56;4707655;29;19916;-92
2023/07/28 09:57:25;;;;;;;;;;;;;;;-145.06;100.00;60892.56;4686354;29;19917;-93
2023/07/28 10:03:12;;;;;;;;;;;;;;;-145.06;100.00;60892.56;4707807;29;19920;-92
2023/07/28 10:06:01;;;;;;;;;;;;;;;-145.06;100.00;60892.56;4688118;29;20018;-94
2023/07/28 10:08:40;;;;;;;;;;;;;;;-145.06;100.00;60892.56;4688282;29;20264;-93
2023/07/28 10:11:47;;;;;;;;;;;;;;;-145.06;100.00;60892.56;4691591;29;19920;-93
2023/07/28 10:14:28;;;;;;;;;;;;;;;-145.06;100.00;60892.56;4693373;29;19916;-92
2023/07/28 10:24:10;;;;;;;;;;;;;;;-145.06;100.00;60892.56;4703646;29;19916;-94
2023/07/28 10:26:57;;;;;;;;;;;;;;;-145.06;100.00;60892.56;4689099;29;19963;-95
2023/07/28 10:29:38;;;;;;;;;;;;;;;-145.06;100.00;60892.56;4704815;29;19959;-94
2023/07/28 10:32:28;;;;;;;;;;;;;;;-145.06;100.00;60892.56;4709022;29;19915;-93
2023/07/28 10:35:08;;;;;;;;;;;;;;;-145.06;100.00;60892.56;4709398;29;19947;-94
2023/07/28 10:37:56;;;;;;;;;;;;;;;-145.06;100.00;60892.56;4709649;29;19916;-94
2023/07/28 10:40:35;;;;;;;;;;;;;;;-145.06;100.00;60892.56;4786118;23;20018;-92
2023/07/28 10:49:59;;;;;;;;;;;;;;;-145.06;100.00;60892.56;4718260;29;19920;-91
2023/07/28 10:52:47;;;;;;;;;;;;;;;-145.06;100.00;60892.56;4715638;29;20215;-90
2023/07/28 10:55:30;;;;;;;;;;;;;;;-145.06;100.00;60892.56;4712823;29;19916;-92
2023/07/28 10:58:38;;;;;;;;;;;;;;;-145.06;100.00;60892.56;4702127;29;20362;-91
2023/07/28 11:01:48;;;;;;;;;;;;;;;-145.06;100.00;60892.56;4723485;29;19919;-94
2023/07/28 11:04:27;;;;;;;;;;;;;;;-145.06;100.00;60892.56;4726482;29;19919;-90
2023/07/28 11:07:07;;;;;;;;;;;;;;;-145.06;100.00;60892.56;4693416;29;19916;-91
2023/07/28 11:09:46;;;;;;;;;;;;;;;-145.06;100.00;60892.56;4692498;29;19920;-91
2023/07/28 11:12:25;;;;;;;;;;;;;;;-145.06;100.00;60892.56;4707747;29;20215;-91
2023/07/28 11:15:06;;;;;;;;;;;;;;;-145.06;100.00;60892.56;4700690;29;19916;-90
2023/07/28 11:17:46;;;;;;;;;;;;;;;-145.06;100.00;60892.56;4712161;29;19915;-91
2023/07/28 11:20:26;;;;;;;;;;;;;;;-145.06;100.00;60892.56;4712572;29;19927;-90
2023/07/28 11:29:51;;;;;;;;;;;;;;;-145.06;100.00;60892.56;4681247;29;19924;-93
2023/07/28 11:32:42;;;;;;;;;;;;;;;-145.06;100.00;60892.56;4715320;29;19920;-91
2023/07/28 11:35:26;;;;;;;;;;;;;;;-145.06;100.00;60892.56;4720960;29;20262;-92
2023/07/28 11:38:06;;;;;;;;;;;;;;;-145.06;100.00;60892.56;4713259;29;19926;-92
2023/07/28 11:40:45;;;;;;;;;;;;;;;-145.06;100.00;60892.56;4694187;29;19920;-92
2023/07/28 11:43:29;;;;;;;;;;;;;;;-145.06;100.00;60892.56;4712636;29;20267;-92
2023/07/28 11:49:47;;;;;;;;;;;;;;;-145.06;100.00;60892.56;4715366;29;20002;-92
2023/07/28 11:52:42;;;;;;;;;;;;;;;-145.06;100.00;60892.56;4699297;29;19916;-95
2023/07/28 11:55:21;;;;;;;;;;;;;;;-145.06;100.00;60892.56;4694815;29;19915;-93
2023/07/28 11:58:03;;;;;;;;;;;;;;;-145.06;100.00;60892.56;4707448;29;19920;-92
2023/07/28 12:00:49;;;;;;;;;;;;;;;-145.06;100.00;60892.56;4723814;29;19920;-93
2023/07/28 12:03:31;;;;;;;;;;;;;;;-145.06;100.00;60892.56;4700420;29;19955;-93
2023/07/28 12:09:46;;;;;;;;;;;;;;;-145.06;100.00;60892.56;4767689;23;19926;-90
2023/07/28 12:19:40;;;;;;;;;;;;;;;-145.06;100.00;60892.56;4659949;29;20004;-91
2023/07/28 12:22:45;;;;;;;;;;;;;;;-145.06;100.00;60892.56;4657178;29;19925;-95
2023/07/28 12:38:47;;;;;;;;;;;;;;;-145.06;100.00;60892.56;4647331;29;20565;-94
2023/07/28 12:41:32;;;;;;;;;;;;;;;-145.06;100.00;60892.56;4646545;29;19913;-94
2023/07/28 12:44:11;;;;;;;;;;;;;;;-145.06;100.00;60892.56;4660206;29;19980;-90
2023/07/28 12:46:53;;;;;;;;;;;;;;;-145.06;100.00;60892.56;4662391;29;20411;-90
2023/07/28 12:49:31;;;;;;;;;;;;;;;-145.06;100.00;60892.56;4672477;29;19924;-91
2023/07/28 12:52:10;;;;;;;;;;;;;;;-145.06;100.00;60892.56;4697663;29;19923;-92
2023/07/28 12:54:49;;;;;;;;;;;;;;;-145.06;100.00;60892.56;4710344;29;19916;-92
2023/07/28 12:57:28;;;;;;;;;;;;;;;-145.06;100.00;60892.56;4730927;29;19924;-90
2023/07/28 13:00:12;;;;;;;;;;;;;;;-145.06;100.00;60892.56;4700605;29;19955;-91
2023/07/28 13:02:51;;;;;;;;;;;;;;;-145.06;100.00;60892.56;4712040;29;19923;-92
2023/07/28 13:05:30;;;;;;;;;;;;;;;-145.06;100.00;60892.56;4728626;29;19919;-89
2023/07/28 13:08:12;;;;;;;;;;;;;;;-145.06;100.00;60892.56;4712016;29;19919;-94
2023/07/28 13:10:53;;;;;;;;;;;;;;;-145.06;100.00;60892.56;4709800;29;19927;-91
2023/07/28 13:13:33;;;;;;;;;;;;;;;-145.06;100.00;60892.56;4697669;29;19959;-93
2023/07/28 13:16:25;;;;;;;;;;;;;;;-145.06;100.00;60892.56;4711786;29;19916;-94
2023/07/28 13:19:05;;;;;;;;;;;;;;;-145.06;100.00;60892.56;4702849;29;19923;-91
2023/07/28 13:21:44;;;;;;;;;;;;;;;-145.06;100.00;60892.56;4702932;29;19920;-90
2023/07/28 13:24:23;;;;;;;;;;;;;;;-145.06;100.00;60892.56;4711051;29;20259;-91
2023/07/28 13:27:28;;;;;;;;;;;;;;;-145.06;100.00;60892.56;4712635;29;20006;-91
2023/07/28 13:30:07;;;;;;;;;;;;;;;-145.06;100.00;60892.56;4711902;29;19919;-90
2023/07/28 13:32:46;;;;;;;;;;;;;;;-145.06;100.00;60892.56;4698300;29;19920;-90
2023/07/28 13:35:25;;;;;;;;;;;;;;;-145.06;100.00;60892.56;4707413;29;19990;-92
2023/07/28 13:38:04;;;;;;;;;;;;;;;-145.06;100.00;60892.56;4706466;29;19944;-92
2023/07/28 13:40:52;;;;;;;;;;;;;;;-145.06;100.00;60892.56;4725150;29;19920;-92
2023/07/28 13:43:32;;;;;;;;;;;;;;;-145.06;100.00;60892.56;4715464;29;19958;-92
2023/07/28 13:46:11;;;;;;;;;;;;;;;-145.06;100.00;60892.56;4706472;29;19943;-93
2023/07/28 13:48:55;;;;;;;;;;;;;;;-145.06;100.00;60892.56;4701721;29;20624;-92
2023/07/28 13:51:35;;;;;;;;;;;;;;;-145.06;100.00;60892.56;4716264;29;20375;-93
2023/07/28 13:54:23;;;;;;;;;;;;;;;-145.06;100.00;60892.56;4710910;29;19924;-94
2023/07/28 13:57:07;;;;;;;;;;;;;;;-145.06;100.00;60892.56;4713819;29;19923;-92
2023/07/28 13:59:46;;;;;;;;;;;;;;;-145.06;100.00;60892.56;4701688;29;19920;-92
2023/07/28 14:02:25;;;;;;;;;;;;;;;-145.06;100.00;60892.56;4712104;29;19919;-89
2023/07/28 14:05:05;;;;;;;;;;;;;;;-145.06;100.00;60892.56;4716207;29;19920;-91
2023/07/28 14:07:44;;;;;;;;;;;;;;;-145.06;100.00;60892.56;4710585;29;19923;-93
2023/07/28 14:17:27;;;;;;;;;;;;;;;-145.06;100.00;60892.56;4667052;29;19924;-92
2023/07/28 14:20:06;;;;;;;;;;;;;;;24.64;100.00;60892.56;4772033;23;19928;-93
2023/07/28 14:23:19;;;;;;;;;;;;;;;24.67;100.00;60892.56;4703774;29;19923;-94
2023/07/28 14:26:09;;;;;;;;;;;;;;;24.70;100.00;60892.56;4700411;29;20003;-95
2023/07/28 14:29:18;;;;;;;;;;;;;;;-145.06;100.00;60892.56;4687050;29;19920;-95
2023/07/28 14:32:07;;;;;;;;;;;;;;;-145.06;100.00;60892.56;4702296;29;19920;-92
2023/07/28 14:35:00;;;;;;;;;;;;;;;24.87;100.00;60892.56;4704715;29;19923;-93
2023/07/28 14:37:39;;;;;;;;;;;;;;;24.88;100.00;60892.56;4727841;29;19919;-94
2023/07/28 14:40:44;;;;;;;;;;;;;;;24.92;100.00;60892.56;4686068;29;19916;-93
2023/07/28 14:43:28;;;;;;;;;;;;;;;24.94;100.00;60892.56;4701312;29;19928;-94
2023/07/28 14:49:45;;;;;;;;;;;;;;;24.95;100.00;60892.56;4722099;29;20414;-94
2023/07/28 15:11:06;;;;;;;;;;;;;;;-145.06;100.00;60892.56;5770587;23;19929;31
2023/07/28 15:17:18;;;;;;;;;;;;;;;-145.06;100.00;60892.56;4649024;29;19932;-94
2023/07/28 15:26:38;;;;;;;;;;;;;;;-145.06;100.00;60892.56;4705393;29;19919;-94
2023/07/28 15:29:21;;;;;;;;;;;;;;;-145.06;100.00;60892.56;4682563;29;19928;-93
2023/07/28 15:32:03;;;;;;;;;;;;;;;-145.06;100.00;60892.56;4682856;29;19921;-93
2023/07/28 15:34:44;;;;;;;;;;;;;;;-145.06;100.00;60892.56;4684704;29;19920;-92
2023/07/28 15:37:23;;;;;;;;;;;;;;;-145.06;100.00;60892.56;4675281;29;19917;-93
2023/07/28 15:47:30;;;;;;;;;;;;;;;;;;;;;
2023/07/28 15:50:37;;;;;;;;;;;;;;;-145.06;100.00;60892.56;4635511;29;20384;-94
2023/07/28 15:53:16;;;;;;;;;;;;;;;-145.06;100.00;60892.56;4683874;29;19920;-92
2023/07/28 15:56:12;;;;;;;;;;;;;;;-145.06;100.00;60892.56;4686120;29;19916;-94
2023/07/28 15:59:06;;;;;;;;;;;;;;;-145.06;100.00;60892.56;4685076;29;20339;-94
2023/07/28 16:01:57;;;;;;;;;;;;;;;-145.06;100.00;60892.56;4678053;29;19920;-93
2023/07/28 16:04:44;;;;;;;;;;;;;;;-145.06;100.00;60892.56;4711702;29;19955;-92
2023/07/28 16:07:23;;;;;;;;;;;;;;;-145.06;100.00;60892.56;4685736;29;20264;-93
2023/07/28 16:10:11;;;;;;;;;;;;;;;-145.06;100.00;60892.56;4692263;29;19920;-93
2023/07/28 16:12:56;;;;;;;;;;;;;;;-145.06;100.00;60892.56;4691531;29;19929;-93
2023/07/28 16:15:45;;;;;;;;;;;;;;;-145.06;100.00;60892.56;4680749;29;19968;-93
2023/07/28 16:18:27;;;;;;;;;;;;;;;-145.06;100.00;60892.56;4700632;29;19919;-93
2023/07/28 16:21:06;;;;;;;;;;;;;;;-145.06;100.00;60892.56;4684639;29;19959;-93
2023/07/28 16:23:45;;;;;;;;;;;;;;;-145.06;100.00;60892.56;4676989;29;19916;-92
2023/07/28 16:26:24;;;;;;;;;;;;;;;-145.06;100.00;60892.56;4681892;29;19987;-92
2023/07/28 16:29:03;;;;;;;;;;;;;;;-145.06;100.00;60892.56;4706627;29;20446;-90
2023/07/28 16:31:42;;;;;;;;;;;;;;;-145.06;100.00;60892.56;4672661;29;19925;-93
2023/07/28 16:34:24;;;;;;;;;;;;;;;-145.06;100.00;60892.56;4698323;29;20613;-94
2023/07/28 16:37:03;;;;;;;;;;;;;;;24.56;100.00;60892.56;4700909;29;19916;-92
2023/07/28 16:39:44;;;;;;;;;;;;;;;24.60;100.00;93348.00;4691485;29;19920;-92
2023/07/28 16:42:24;;;;;;;;;;;;;;;24.66;100.00;60892.56;4689042;29;19923;-91
2023/07/28 16:45:03;;;;;;;;;;;;;;;24.69;100.00;60892.56;4680578;29;19925;-92
2023/07/28 16:47:46;;;;;;;;;;;;;;;24.73;100.00;60892.56;4678866;29;19967;-93
2023/07/28 16:50:25;;;;;;;;;;;;;;;24.77;100.00;93348.00;4693602;29;19916;-92
2023/07/28 16:53:42;;;;;;;;;;;;;;;;;;;;;
2023/07/28 16:56:42;;;;;;;;;;;;;;;;;;;;;